Time;durP1;ratioP1;P1;durP2;ratioP2;P2;SDS_P1;SDS_P2;PMS_P1;PMS_P2;Temp;Humidity;BMP_temperature;BMP_pressure;BME280_temperature;BME280_humidity;BME280_pressure;Samples;Min_cycle;Max_cycle;Signal;HPM_P1;HPM_P2
2023/07/10 00:01:25;;;;;;;3.53;1.88;;;;;;;;;;7383812;19;20041;-69
2023/07/10 00:03:51;;;;;;;2.38;1.55;;;;;;;;;;7383450;19;20006;-69
2023/07/10 00:06:18;;;;;;;3.10;2.00;;;;;;;;;;7383667;19;20012;-67
2023/07/10 00:08:43;;;;;;;2.20;1.83;;;;;;;;;;7385179;19;19998;-68
2023/07/10 00:11:30;;;;;;;3.17;2.08;;;;;;;;;;7384807;19;20006;-69
2023/07/10 00:13:56;;;;;;;3.50;1.85;;;;;;;;;;7385138;19;20533;-68
2023/07/10 00:16:24;;;;;;;3.22;1.90;;;;;;;;;;7385057;19;20090;-68
2023/07/10 00:18:50;;;;;;;2.05;1.73;;;;;;;;;;7384876;19;19999;-68
2023/07/10 00:21:19;;;;;;;3.25;2.08;;;;;;;;;;7384442;19;20020;-69
2023/07/10 00:23:45;;;;;;;3.00;1.77;;;;;;;;;;7382950;19;20011;-67
2023/07/10 00:26:31;;;;;;;2.63;1.77;;;;;;;;;;7384118;19;19999;-68
2023/07/10 00:29:01;;;;;;;2.88;1.73;;;;;;;;;;7381797;19;20009;-67
2023/07/10 00:31:26;;;;;;;4.78;1.85;;;;;;;;;;7382650;19;20007;-68
2023/07/10 00:33:53;;;;;;;2.58;1.60;;;;;;;;;;7384618;19;20500;-67
2023/07/10 00:36:32;;;;;;;3.30;1.60;;;;;;;;;;7384179;19;20031;-67
2023/07/10 00:39:15;;;;;;;2.95;1.60;;;;;;;;;;7383110;19;20007;-68
2023/07/10 00:41:43;;;;;;;2.80;1.85;;;;;;;;;;7383288;19;20009;-69
2023/07/10 00:44:09;;;;;;;1.37;1.13;;;;;;;;;;7382751;19;20006;-67
2023/07/10 00:46:56;;;;;;;2.97;1.60;;;;;;;;;;7382652;19;20248;-68
2023/07/10 00:49:31;;;;;;;3.00;1.80;;;;;;;;;;7381294;19;20074;-67
2023/07/10 00:52:22;;;;;;;1.98;1.58;;;;;;;;;;7384137;19;19999;-67
2023/07/10 00:54:52;;;;;;;3.20;1.52;;;;;;;;;;7382252;19;20002;-68
2023/07/10 00:57:38;;;;;;;4.45;1.70;;;;;;;;;;7383635;19;20002;-68
2023/07/10 01:00:20;;;;;;;3.58;1.88;;;;;;;;;;7381439;19;20516;-68
2023/07/10 01:02:47;;;;;;;4.22;1.80;;;;;;;;;;7383374;19;20017;-67
2023/07/10 01:05:13;;;;;;;3.17;1.98;;;;;;;;;;7382457;19;20014;-68
2023/07/10 01:07:50;;;;;;;2.53;1.40;;;;;;;;;;7380527;19;20066;-68
2023/07/10 01:10:15;;;;;;;2.58;1.55;;;;;;;;;;7382770;19;20123;-68
2023/07/10 01:12:43;;;;;;;2.65;1.70;;;;;;;;;;7383308;19;20032;-68
2023/07/10 01:15:11;;;;;;;2.37;1.60;;;;;;;;;;7382730;19;20390;-68
2023/07/10 01:17:37;;;;;;;1.65;1.45;;;;;;;;;;7388871;19;20002;-68
2023/07/10 01:20:50;;;;;;;3.00;1.88;;;;;;;;;;7389890;19;20024;-68
2023/07/10 01:23:18;;;;;;;3.80;1.73;;;;;;;;;;7388573;19;20027;-68
2023/07/10 01:25:56;;;;;;;2.37;1.50;;;;;;;;;;7388347;19;21124;-67
2023/07/10 01:28:21;;;;;;;3.20;1.55;;;;;;;;;;7386591;19;20742;-68
2023/07/10 01:30:52;;;;;;;2.30;1.70;;;;;;;;;;7389912;19;20016;-69
2023/07/10 01:33:27;;;;;;;4.35;1.60;;;;;;;;;;7387288;19;20103;-68
2023/07/10 01:35:57;;;;;;;3.00;1.80;;;;;;;;;;7388014;19;20007;-69
2023/07/10 01:38:45;;;;;;;2.28;1.42;;;;;;;;;;7387310;19;20017;-68
2023/07/10 01:41:32;;;;;;;2.05;1.60;;;;;;;;;;7389184;19;20262;-70
2023/07/10 01:43:58;;;;;;;2.05;1.55;;;;;;;;;;7387953;19;20454;-68
2023/07/10 01:46:27;;;;;;;2.90;1.88;;;;;;;;;;7388147;19;20027;-70
2023/07/10 01:48:57;;;;;;;2.80;1.80;;;;;;;;;;7386793;19;20006;-68
2023/07/10 01:51:23;;;;;;;2.20;1.88;;;;;;;;;;7387157;19;20473;-67
2023/07/10 01:53:49;;;;;;;2.17;1.52;;;;;;;;;;7389724;19;20003;-69
2023/07/10 01:56:18;;;;;;;2.95;1.80;;;;;;;;;;7386960;19;20010;-69
2023/07/10 01:58:44;;;;;;;4.25;1.70;;;;;;;;;;7387182;19;20051;-69
2023/07/10 02:01:10;;;;;;;3.63;1.45;;;;;;;;;;7386332;19;20031;-68
2023/07/10 02:03:35;;;;;;;2.42;1.75;;;;;;;;;;7388681;19;20006;-69
2023/07/10 02:06:01;;;;;;;1.83;1.38;;;;;;;;;;7388563;19;19995;-68
2023/07/10 02:08:27;;;;;;;2.55;1.50;;;;;;;;;;7386547;19;20006;-69
2023/07/10 02:10:53;;;;;;;2.42;1.52;;;;;;;;;;7388628;19;20038;-69
2023/07/10 02:13:19;;;;;;;1.92;1.63;;;;;;;;;;7388039;19;20007;-69
2023/07/10 02:15:44;;;;;;;2.22;1.67;;;;;;;;;;7388270;19;20002;-68
2023/07/10 02:18:10;;;;;;;2.90;1.70;;;;;;;;;;7387044;19;20002;-68
2023/07/10 02:20:35;;;;;;;2.53;1.67;;;;;;;;;;7388212;19;20490;-69
2023/07/10 02:23:01;;;;;;;2.25;1.67;;;;;;;;;;7387254;19;20027;-69
2023/07/10 02:25:26;;;;;;;2.20;1.50;;;;;;;;;;7388169;19;20005;-68
2023/07/10 02:27:52;;;;;;;2.35;1.88;;;;;;;;;;7385428;19;20015;-68
2023/07/10 02:30:17;;;;;;;3.95;2.10;;;;;;;;;;7387930;19;19998;-69
2023/07/10 02:32:43;;;;;;;2.47;1.42;;;;;;;;;;7386764;19;20027;-68
2023/07/10 02:35:09;;;;;;;2.35;1.60;;;;;;;;;;7386884;19;20005;-69
2023/07/10 02:37:34;;;;;;;3.15;1.70;;;;;;;;;;7387702;19;20003;-68
2023/07/10 02:40:00;;;;;;;2.63;1.80;;;;;;;;;;7386040;19;20446;-68
2023/07/10 02:42:26;;;;;;;1.83;1.45;;;;;;;;;;7387330;19;20085;-69
2023/07/10 02:44:52;;;;;;;3.03;1.52;;;;;;;;;;7387592;19;20062;-67
2023/07/10 02:47:18;;;;;;;2.17;1.45;;;;;;;;;;7386622;19;20457;-68
2023/07/10 02:49:43;;;;;;;2.92;1.58;;;;;;;;;;7387449;19;20054;-68
2023/07/10 02:52:09;;;;;;;2.50;1.55;;;;;;;;;;7386502;19;19995;-67
2023/07/10 02:54:34;;;;;;;3.05;1.70;;;;;;;;;;7386109;19;20003;-69
2023/07/10 02:57:00;;;;;;;2.30;1.58;;;;;;;;;;7387147;19;20007;-68
2023/07/10 02:59:27;;;;;;;2.58;1.50;;;;;;;;;;7387170;19;20006;-68
2023/07/10 03:01:53;;;;;;;2.88;1.70;;;;;;;;;;7385417;19;22111;-68
2023/07/10 03:04:19;;;;;;;1.80;1.52;;;;;;;;;;7387045;19;20561;-68
2023/07/10 03:06:48;;;;;;;1.60;1.40;;;;;;;;;;7385491;19;20013;-68
2023/07/10 03:09:15;;;;;;;1.98;1.40;;;;;;;;;;7383955;19;20014;-68
2023/07/10 03:11:40;;;;;;;2.00;1.25;;;;;;;;;;7385210;19;19998;-69
2023/07/10 03:14:06;;;;;;;2.53;1.60;;;;;;;;;;7386039;19;20010;-69
2023/07/10 03:16:31;;;;;;;1.90;1.30;;;;;;;;;;7386917;19;20363;-69
2023/07/10 03:18:57;;;;;;;5.95;1.52;;;;;;;;;;7384676;19;20445;-69
2023/07/10 03:21:22;;;;;;;2.38;1.40;;;;;;;;;;7386727;19;20030;-69
2023/07/10 03:23:49;;;;;;;2.33;1.60;;;;;;;;;;7384746;19;19995;-70
2023/07/10 03:26:14;;;;;;;5.57;1.58;;;;;;;;;;7384658;19;20007;-68
2023/07/10 03:28:40;;;;;;;2.97;1.50;;;;;;;;;;7385723;19;20468;-69
2023/07/10 03:31:06;;;;;;;3.75;2.05;;;;;;;;;;7386196;19;20663;-68
2023/07/10 03:33:33;;;;;;;1.40;1.10;;;;;;;;;;7386666;19;19998;-67
2023/07/10 03:36:05;;;;;;;1.92;1.27;;;;;;;;;;7384963;19;19994;-69
2023/07/10 03:38:32;;;;;;;8.02;1.85;;;;;;;;;;7384836;19;20002;-68
2023/07/10 03:40:58;;;;;;;2.58;1.40;;;;;;;;;;7384597;19;20011;-67
2023/07/10 03:43:26;;;;;;;2.03;1.20;;;;;;;;;;7385225;19;20442;-67
2023/07/10 03:45:54;;;;;;;2.13;1.30;;;;;;;;;;7382644;19;20106;-68
2023/07/10 03:48:20;;;;;;;1.80;0.98;;;;;;;;;;7379020;19;20430;-69
2023/07/10 03:50:45;;;;;;;2.08;1.40;;;;;;;;;;7380512;19;20042;-68
2023/07/10 03:53:11;;;;;;;3.10;1.40;;;;;;;;;;7380882;19;20040;-68
2023/07/10 03:55:36;;;;;;;2.42;1.15;;;;;;;;;;7381802;19;20229;-68
2023/07/10 03:58:15;;;;;;;1.58;1.02;;;;;;;;;;7381269;19;19994;-68
2023/07/10 04:00:40;;;;;;;;;;;;;;;;;;7385350;19;20002;-68
2023/07/10 04:03:06;;;;;;;2.72;1.20;;;;;;;;;;7384722;19;19926;-69
2023/07/10 04:05:31;;;;;;;1.90;1.08;;;;;;;;;;7385660;19;20070;-68
2023/07/10 04:07:57;;;;;;;1.65;1.27;;;;;;;;;;7385107;19;20023;-69
2023/07/10 04:10:22;;;;;;;1.40;1.10;;;;;;;;;;7385599;19;20033;-68
2023/07/10 04:12:47;;;;;;;2.55;1.42;;;;;;;;;;7385606;19;19999;-67
2023/07/10 04:15:13;;;;;;;2.45;1.20;;;;;;;;;;7384922;19;20038;-68
2023/07/10 04:17:38;;;;;;;1.50;1.10;;;;;;;;;;7385280;19;20036;-68
2023/07/10 04:20:05;;;;;;;7.70;1.30;;;;;;;;;;7384517;19;20027;-67
2023/07/10 04:22:30;;;;;;;1.65;1.30;;;;;;;;;;7382544;19;20005;-68
2023/07/10 04:25:03;;;;;;;1.95;0.95;;;;;;;;;;7383356;19;20074;-68
2023/07/10 04:27:30;;;;;;;2.83;1.20;;;;;;;;;;7382637;19;20014;-67
2023/07/10 04:29:55;;;;;;;1.67;1.30;;;;;;;;;;7383192;19;20002;-68
2023/07/10 04:32:20;;;;;;;2.22;1.23;;;;;;;;;;7384160;19;20018;-66
2023/07/10 04:34:46;;;;;;;1.98;1.17;;;;;;;;;;7384925;19;20063;-67
2023/07/10 04:37:12;;;;;;;2.33;1.30;;;;;;;;;;7382146;19;20006;-68
2023/07/10 04:39:37;;;;;;;1.90;1.38;;;;;;;;;;7384962;19;20036;-68
2023/07/10 04:42:03;;;;;;;2.22;1.40;;;;;;;;;;7383662;19;19991;-68
2023/07/10 04:44:30;;;;;;;2.08;1.10;;;;;;;;;;7384600;19;20002;-67
2023/07/10 04:46:55;;;;;;;2.53;1.30;;;;;;;;;;7384623;19;20453;-67
2023/07/10 04:49:21;;;;;;;2.25;1.20;;;;;;;;;;7383375;19;20022;-69
2023/07/10 04:51:47;;;;;;;1.95;1.40;;;;;;;;;;7389139;19;20023;-66
2023/07/10 04:54:12;;;;;;;4.10;1.58;;;;;;;;;;7390306;19;19994;-67
2023/07/10 04:56:37;;;;;;;2.05;1.40;;;;;;;;;;7391006;19;20448;-68
2023/07/10 04:59:03;;;;;;;1.85;1.20;;;;;;;;;;7390619;19;20014;-67
2023/07/10 05:01:34;;;;;;;1.90;1.38;;;;;;;;;;7390960;19;19999;-67
2023/07/10 05:04:01;;;;;;;1.90;1.20;;;;;;;;;;7391499;19;19994;-69
2023/07/10 05:06:28;;;;;;;2.08;1.13;;;;;;;;;;7389004;19;20018;-68
2023/07/10 05:08:58;;;;;;;1.77;1.30;;;;;;;;;;7389916;19;20003;-67
2023/07/10 05:11:27;;;;;;;3.35;1.60;;;;;;;;;;7390448;19;20028;-67
2023/07/10 05:13:52;;;;;;;;;;;;;;;;;;7391674;19;20002;-67
2023/07/10 05:16:17;;;;;;;2.63;1.20;;;;;;;;;;7390173;19;20355;-68
2023/07/10 05:18:43;;;;;;;2.13;1.25;;;;;;;;;;7390737;19;20338;-68
2023/07/10 05:21:09;;;;;;;2.42;1.50;;;;;;;;;;7390212;19;20002;-68
2023/07/10 05:23:35;;;;;;;2.40;1.40;;;;;;;;;;7390984;19;20007;-67
2023/07/10 05:26:06;;;;;;;2.42;1.20;;;;;;;;;;7390559;19;19995;-68
2023/07/10 05:28:31;;;;;;;2.60;1.30;;;;;;;;;;7389396;19;19994;-67
2023/07/10 05:30:59;;;;;;;2.08;1.50;;;;;;;;;;7389873;19;20002;-68
2023/07/10 05:33:25;;;;;;;3.25;1.30;;;;;;;;;;7389513;19;19998;-67
2023/07/10 05:35:59;;;;;;;2.15;1.08;;;;;;;;;;7388447;19;19999;-67
2023/07/10 05:38:28;;;;;;;1.58;1.17;;;;;;;;;;7389231;19;19998;-67
2023/07/10 05:40:54;;;;;;;2.13;1.30;;;;;;;;;;7390191;19;20001;-68
2023/07/10 05:43:20;;;;;;;2.10;1.10;;;;;;;;;;7389303;19;20006;-67
2023/07/10 05:45:48;;;;;;;4.35;0.98;;;;;;;;;;7389577;19;20007;-67
2023/07/10 05:48:14;;;;;;;2.15;1.30;;;;;;;;;;7385990;19;20445;-68
2023/07/10 05:50:43;;;;;;;1.88;1.10;;;;;;;;;;7389362;19;19998;-68
2023/07/10 05:53:09;;;;;;;;;;;;;;;;;;7389504;19;20458;-67
2023/07/10 05:55:34;;;;;;;2.72;1.15;;;;;;;;;;7389492;19;19911;-68
2023/07/10 05:57:59;;;;;;;2.58;1.05;;;;;;;;;;7389790;19;20005;-67
2023/07/10 06:00:25;;;;;;;1.25;0.90;;;;;;;;;;7388792;19;20356;-67
2023/07/10 06:02:51;;;;;;;1.75;1.10;;;;;;;;;;7389040;19;19999;-67
2023/07/10 06:05:17;;;;;;;1.17;0.90;;;;;;;;;;7388719;19;19998;-67
2023/07/10 06:07:42;;;;;;;2.67;0.90;;;;;;;;;;7388605;19;20098;-68
2023/07/10 06:10:08;;;;;;;1.83;1.10;;;;;;;;;;7388381;19;20002;-67
2023/07/10 06:12:33;;;;;;;2.80;0.93;;;;;;;;;;7387145;19;20331;-68
2023/07/10 06:14:59;;;;;;;2.70;1.20;;;;;;;;;;7387298;19;20011;-66
2023/07/10 06:17:24;;;;;;;2.25;1.38;;;;;;;;;;7386517;19;20003;-66
2023/07/10 06:19:49;;;;;;;1.42;0.90;;;;;;;;;;7388666;19;20011;-68
2023/07/10 06:22:15;;;;;;;1.35;0.90;;;;;;;;;;7385925;19;19999;-68
2023/07/10 06:24:40;;;;;;;1.48;0.90;;;;;;;;;;7388381;19;20008;-67
2023/07/10 06:27:06;;;;;;;2.17;1.05;;;;;;;;;;7387881;19;19994;-67
2023/07/10 06:29:36;;;;;;;1.40;1.17;;;;;;;;;;7387992;19;19998;-68
2023/07/10 06:32:03;;;;;;;1.27;0.90;;;;;;;;;;7388484;19;19995;-70
2023/07/10 06:34:29;;;;;;;1.98;1.10;;;;;;;;;;7388708;19;20027;-68
2023/07/10 06:36:55;;;;;;;2.60;0.95;;;;;;;;;;7386454;19;19995;-67
2023/07/10 06:39:21;;;;;;;1.08;0.90;;;;;;;;;;7387727;19;20005;-66
2023/07/10 06:41:46;;;;;;;3.03;1.27;;;;;;;;;;7388276;19;20054;-67
2023/07/10 06:44:12;;;;;;;1.73;1.00;;;;;;;;;;7385272;19;19991;-66
2023/07/10 06:46:37;;;;;;;1.73;0.80;;;;;;;;;;7387487;19;20054;-67
2023/07/10 06:49:03;;;;;;;1.83;1.02;;;;;;;;;;7386076;19;20015;-68
2023/07/10 06:51:29;;;;;;;1.83;1.20;;;;;;;;;;7387200;19;19999;-67
2023/07/10 06:53:54;;;;;;;2.40;0.93;;;;;;;;;;7387474;19;19994;-67
2023/07/10 06:56:20;;;;;;;2.60;1.52;;;;;;;;;;7385116;19;20002;-68
2023/07/10 06:58:45;;;;;;;1.63;1.25;;;;;;;;;;7387272;19;20049;-66
2023/07/10 07:01:10;;;;;;;2.58;1.40;;;;;;;;;;7386515;19;19998;-67
2023/07/10 07:03:36;;;;;;;2.95;1.70;;;;;;;;;;7387263;19;20360;-68
2023/07/10 07:06:06;;;;;;;3.03;1.50;;;;;;;;;;7385025;19;20762;-68
2023/07/10 07:08:31;;;;;;;4.00;1.13;;;;;;;;;;7386612;19;20011;-66
2023/07/10 07:10:57;;;;;;;3.72;1.40;;;;;;;;;;7387521;19;20011;-66
2023/07/10 07:13:23;;;;;;;2.20;1.13;;;;;;;;;;7384687;19;20003;-68
2023/07/10 07:15:50;;;;;;;2.72;0.90;;;;;;;;;;7387172;19;20074;-68
2023/07/10 07:18:16;;;;;;;2.63;0.75;;;;;;;;;;7386223;19;20041;-68
2023/07/10 07:20:41;;;;;;;2.20;1.05;;;;;;;;;;7386886;19;20002;-68
2023/07/10 07:23:07;;;;;;;4.75;1.00;;;;;;;;;;7385677;19;20006;-68
2023/07/10 07:25:32;;;;;;;2.17;1.00;;;;;;;;;;7386674;19;19995;-67
2023/07/10 07:27:59;;;;;;;1.92;1.00;;;;;;;;;;7385966;19;19999;-68
2023/07/10 07:30:26;;;;;;;1.35;1.08;;;;;;;;;;7385783;19;19998;-66
2023/07/10 07:32:52;;;;;;;1.02;0.80;;;;;;;;;;7386454;19;20356;-69
2023/07/10 07:35:18;;;;;;;3.80;1.10;;;;;;;;;;7385869;19;19995;-66
2023/07/10 07:37:43;;;;;;;3.25;0.95;;;;;;;;;;7386164;19;20454;-66
2023/07/10 07:40:09;;;;;;;1.85;1.05;;;;;;;;;;7386035;19;20063;-66
2023/07/10 07:42:35;;;;;;;1.95;0.90;;;;;;;;;;7385948;19;20458;-67
2023/07/10 07:45:02;;;;;;;1.35;0.80;;;;;;;;;;7386660;19;20010;-66
2023/07/10 07:47:28;;;;;;;4.00;1.02;;;;;;;;;;7383641;19;20028;-65
2023/07/10 07:49:53;;;;;;;2.40;1.15;;;;;;;;;;7386023;19;20078;-66
2023/07/10 07:52:19;;;;;;;2.33;1.20;;;;;;;;;;7384596;19;20151;-67
2023/07/10 07:54:44;;;;;;;1.73;1.00;;;;;;;;;;7385913;19;19995;-67
2023/07/10 07:57:10;;;;;;;1.48;0.88;;;;;;;;;;7385215;19;20100;-66
2023/07/10 07:59:35;;;;;;;2.63;1.13;;;;;;;;;;7385759;19;20002;-66
2023/07/10 08:02:01;;;;;;;3.83;1.30;;;;;;;;;;7383245;19;19995;-66
2023/07/10 08:04:26;;;;;;;4.88;1.10;;;;;;;;;;7385716;19;20027;-66
2023/07/10 08:06:52;;;;;;;0.98;0.88;;;;;;;;;;7385266;19;20518;-67
2023/07/10 08:09:17;;;;;;;4.18;1.40;;;;;;;;;;7384371;19;19991;-66
2023/07/10 08:11:43;;;;;;;2.42;1.10;;;;;;;;;;7385293;19;20319;-67
2023/07/10 08:14:09;;;;;;;2.92;1.20;;;;;;;;;;7384858;19;20002;-66
2023/07/10 08:16:35;;;;;;;1.92;1.25;;;;;;;;;;7385376;19;19999;-67
2023/07/10 08:19:01;;;;;;;2.42;1.27;;;;;;;;;;7385196;19;19995;-65
2023/07/10 08:21:26;;;;;;;3.15;1.35;;;;;;;;;;7385302;19;20078;-66
2023/07/10 08:23:52;;;;;;;1.92;1.20;;;;;;;;;;7385833;19;19999;-67
2023/07/10 08:26:17;;;;;;;4.55;1.20;;;;;;;;;;7390122;19;19994;-66
2023/07/10 08:28:42;;;;;;;1.63;1.13;;;;;;;;;;7390722;19;20562;-67
2023/07/10 08:31:08;;;;;;;2.03;1.10;;;;;;;;;;7390314;19;20002;-65
2023/07/10 08:33:35;;;;;;;4.53;1.23;;;;;;;;;;7391585;19;19994;-64
2023/07/10 08:36:04;;;;;;;3.75;0.93;;;;;;;;;;7390951;19;20005;-67
2023/07/10 08:38:31;;;;;;;2.28;1.02;;;;;;;;;;7390903;19;19998;-67
2023/07/10 08:41:01;;;;;;;1.00;0.88;;;;;;;;;;7390984;19;19998;-67
2023/07/10 08:43:37;;;;;;;10.25;1.63;;;;;;;;;;7390754;19;20001;-67
2023/07/10 08:46:07;;;;;;;2.58;1.15;;;;;;;;;;7388771;19;19995;-67
2023/07/10 08:48:53;;;;;;;3.03;1.00;;;;;;;;;;7390440;19;20359;-67
2023/07/10 08:51:21;;;;;;;2.67;1.02;;;;;;;;;;7390744;19;20015;-67
2023/07/10 08:54:03;;;;;;;2.22;1.00;;;;;;;;;;7389386;19;20019;-68
2023/07/10 08:56:36;;;;;;;1.75;1.20;;;;;;;;;;7388706;19;20011;-67
2023/07/10 08:59:29;;;;;;;8.68;1.60;;;;;;;;;;7390328;19;19999;-68
2023/07/10 09:01:56;;;;;;;1.48;1.20;;;;;;;;;;7390772;19;20089;-67
2023/07/10 09:04:22;;;;;;;3.35;1.35;;;;;;;;;;7388183;19;20002;-68
2023/07/10 09:06:56;;;;;;;4.45;1.10;;;;;;;;;;7390020;19;20023;-66
2023/07/10 09:09:40;;;;;;;2.85;1.10;;;;;;;;;;7389015;19;20066;-67
2023/07/10 09:12:35;;;;;;;1.58;1.00;;;;;;;;;;7389345;19;20380;-67
2023/07/10 09:15:13;;;;;;;2.33;1.17;;;;;;;;;;7389297;19;20721;-67
2023/07/10 09:17:51;;;;;;;3.60;1.10;;;;;;;;;;7387761;19;20467;-68
2023/07/10 09:20:20;;;;;;;4.75;1.27;;;;;;;;;;7390351;19;19999;-67
2023/07/10 09:22:53;;;;;;;1.92;1.40;;;;;;;;;;7388145;19;20518;-67
2023/07/10 09:25:21;;;;;;;1.98;1.63;;;;;;;;;;7390091;19;19998;-67
2023/07/10 09:27:48;;;;;;;1.27;0.85;;;;;;;;;;7389576;19;20026;-68
2023/07/10 09:30:59;;;;;;;2.13;1.27;;;;;;;;;;7389610;19;19994;-67
2023/07/10 09:33:49;;;;;;;4.18;1.35;;;;;;;;;;7389507;19;20020;-68
2023/07/10 09:36:19;;;;;;;2.15;1.00;;;;;;;;;;7387626;19;20009;-68
2023/07/10 09:38:49;;;;;;;1.27;0.98;;;;;;;;;;7389333;19;20341;-68
2023/07/10 09:41:28;;;;;;;3.70;1.30;;;;;;;;;;7389041;19;20090;-67
2023/07/10 09:44:02;;;;;;;1.40;1.10;;;;;;;;;;7389613;19;20007;-67
2023/07/10 09:46:35;;;;;;;1.40;1.00;;;;;;;;;;7387578;19;19997;-67
2023/07/10 09:49:08;;;;;;;1.85;1.02;;;;;;;;;;7386539;19;19998;-67
2023/07/10 09:51:36;;;;;;;3.17;1.38;;;;;;;;;;7387502;19;20449;-67
2023/07/10 09:54:06;;;;;;;1.98;0.93;;;;;;;;;;7388652;19;20430;-67
2023/07/10 09:56:38;;;;;;;2.03;1.38;;;;;;;;;;7389402;19;20005;-67
2023/07/10 09:59:32;;;;;;;5.13;1.70;;;;;;;;;;7388468;19;20018;-66
2023/07/10 10:02:20;;;;;;;4.07;0.93;;;;;;;;;;7387817;19;19995;-68
2023/07/10 10:05:10;;;;;;;2.05;1.10;;;;;;;;;;7387930;19;20449;-67
2023/07/10 10:07:43;;;;;;;1.70;1.00;;;;;;;;;;7388249;19;20337;-66
2023/07/10 10:10:27;;;;;;;7.05;1.50;;;;;;;;;;7388288;19;19998;-67
2023/07/10 10:13:24;;;;;;;2.17;1.10;;;;;;;;;;7386906;19;20066;-66
2023/07/10 10:16:24;;;;;;;1.53;1.07;;;;;;;;;;7388308;19;20032;-66
2023/07/10 10:19:04;;;;;;;1.52;0.88;;;;;;;;;;7386559;19;19999;-67
2023/07/10 10:21:33;;;;;;;1.83;1.13;;;;;;;;;;7387474;19;19999;-67
2023/07/10 10:24:04;;;;;;;1.88;1.25;;;;;;;;;;7388103;19;19994;-66
2023/07/10 10:27:00;;;;;;;3.00;1.45;;;;;;;;;;7387941;19;19995;-67
2023/07/10 10:29:52;;;;;;;2.00;1.17;;;;;;;;;;7386862;19;20378;-66
2023/07/10 10:32:25;;;;;;;1.38;1.08;;;;;;;;;;7387024;19;19994;-66
2023/07/10 10:35:17;;;;;;;2.67;1.70;;;;;;;;;;7385381;19;20010;-67
2023/07/10 10:38:02;;;;;;;2.15;1.35;;;;;;;;;;7387117;19;20247;-67
2023/07/10 10:40:51;;;;;;;5.10;2.85;;;;;;;;;;7385172;19;20461;-67
2023/07/10 10:44:24;;;;;;;2.45;1.40;;;;;;;;;;7385463;19;20006;-66
2023/07/10 10:47:14;;;;;;;3.20;1.10;;;;;;;;;;7384997;19;20062;-66
2023/07/10 10:50:04;;;;;;;4.03;1.67;;;;;;;;;;7385184;19;20464;-66
2023/07/10 10:52:29;;;;;;;3.33;1.90;;;;;;;;;;7386778;19;20003;-67
2023/07/10 10:55:18;;;;;;;3.10;1.40;;;;;;;;;;7387192;19;20336;-66
2023/07/10 10:58:06;;;;;;;2.35;1.60;;;;;;;;;;7387188;19;19990;-67
2023/07/10 11:00:46;;;;;;;2.60;1.80;;;;;;;;;;7386333;19;20418;-66
2023/07/10 11:03:32;;;;;;;2.83;1.52;;;;;;;;;;7386516;19;20010;-66
2023/07/10 11:06:26;;;;;;;5.57;1.88;;;;;;;;;;7384057;19;19990;-68
2023/07/10 11:08:56;;;;;;;3.60;1.77;;;;;;;;;;7384867;19;20025;-66
2023/07/10 11:11:37;;;;;;;7.35;1.58;;;;;;;;;;7384715;19;20006;-66
2023/07/10 11:14:04;;;;;;;2.40;1.33;;;;;;;;;;7386475;19;20021;-67
2023/07/10 11:16:33;;;;;;;4.03;2.08;;;;;;;;;;7384765;19;20011;-66
2023/07/10 11:19:00;;;;;;;3.13;1.50;;;;;;;;;;7386511;19;20001;-66
2023/07/10 11:21:26;;;;;;;8.52;1.45;;;;;;;;;;7385811;19;19998;-67
2023/07/10 11:23:51;;;;;;;4.00;1.75;;;;;;;;;;7384299;19;19999;-66
2023/07/10 11:26:24;;;;;;;2.95;1.70;;;;;;;;;;7384019;19;19994;-66
2023/07/10 11:29:16;;;;;;;2.33;1.40;;;;;;;;;;7385503;19;20022;-66
2023/07/10 11:31:42;;;;;;;2.88;1.70;;;;;;;;;;7386077;19;19998;-67
2023/07/10 11:34:08;;;;;;;3.00;1.77;;;;;;;;;;7383869;19;19994;-66
2023/07/10 11:36:33;;;;;;;3.45;1.60;;;;;;;;;;7386181;19;19998;-68
2023/07/10 11:39:10;;;;;;;3.20;1.63;;;;;;;;;;7386097;19;20008;-67
2023/07/10 11:41:42;;;;;;;2.60;1.57;;;;;;;;;;7386001;19;19994;-67
2023/07/10 11:44:14;;;;;;;10.50;1.70;;;;;;;;;;7385453;19;20203;-67
2023/07/10 11:47:01;;;;;;;3.75;1.90;;;;;;;;;;7385190;19;20074;-68
2023/07/10 11:50:05;;;;;;;3.17;1.52;;;;;;;;;;7384538;19;20088;-67
2023/07/10 11:52:32;;;;;;;2.75;1.55;;;;;;;;;;7384866;19;19998;-67
2023/07/10 11:54:57;;;;;;;3.05;1.63;;;;;;;;;;7383441;19;20375;-68
2023/07/10 11:57:29;;;;;;;3.22;1.63;;;;;;;;;;7384828;19;19998;-67
2023/07/10 12:00:19;;;;;;;2.83;1.55;;;;;;;;;;7384540;19;20006;-67
2023/07/10 12:02:54;;;;;;;4.90;1.80;;;;;;;;;;7385197;19;19998;-67
2023/07/10 12:05:37;;;;;;;2.88;1.40;;;;;;;;;;7384691;19;19995;-67
2023/07/10 12:08:12;;;;;;;4.38;1.95;;;;;;;;;;7383948;19;20001;-68
2023/07/10 17:04:58;;;;;;;8.73;2.85;;;;;;;;;;4951412;28;20402;-64
2023/07/10 17:07:24;;;;;;;5.50;3.22;;;;;;;;;;4942822;28;80453;-64
2023/07/10 17:11:38;;;;;;;6.47;2.95;;;;;;;;;;4918035;28;20407;-64
2023/07/10 17:16:09;;;;;;;6.57;3.22;;;;;;;;;;5028778;28;20400;-63
2023/07/10 17:18:35;;;;;;;4.78;2.92;;;;;;;;;;5003296;28;20050;-64
2023/07/10 17:21:03;;;;;;;5.55;3.25;;;;;;;;;;4808951;28;20111;-64
2023/07/10 17:23:35;;;;;;;3.70;2.57;;;;;;;;;;4950571;28;20459;-65
2023/07/10 17:26:01;;;;;;;6.90;2.67;;;;;;;;;;4996226;28;20060;-64
2023/07/10 17:28:37;;;;;;;10.32;5.15;;;;;;;;;;4952099;28;20042;-64
2023/07/10 17:31:15;;;;;;;7.97;2.83;;;;;;;;;;5014618;28;20046;-65
2023/07/10 17:33:52;;;;;;;4.68;2.88;;;;;;;;;;4970693;28;20203;-64
2023/07/10 17:36:18;;;;;;;5.23;2.87;;;;;;;;;;5016545;28;20519;-65
2023/07/10 17:38:45;;;;;;;5.03;2.88;;;;;;;;;;5021796;28;20287;-65
2023/07/10 17:41:27;;;;;;;7.03;3.03;;;;;;;;;;5012681;28;20132;-64
2023/07/10 17:43:57;;;;;;;8.65;3.75;;;;;;;;;;5023107;28;20125;-65
2023/07/10 17:46:23;;;;;;;6.43;3.45;;;;;;;;;;5022184;28;20451;-64
2023/07/10 17:48:49;;;;;;;5.60;2.58;;;;;;;;;;5021860;28;20038;-64
2023/07/10 17:51:31;;;;;;;4.20;2.65;;;;;;;;;;5021910;28;20048;-64
2023/07/10 17:53:58;;;;;;;6.55;3.33;;;;;;;;;;5022153;28;20511;-65
2023/07/10 17:56:24;;;;;;;4.80;2.67;;;;;;;;;;5022061;28;20076;-65
2023/07/10 17:58:51;;;;;;;7.53;3.72;;;;;;;;;;5022181;28;20033;-64
2023/07/10 18:01:23;;;;;;;7.13;3.10;;;;;;;;;;5021981;28;20049;-65
2023/07/10 18:03:56;;;;;;;5.13;3.03;;;;;;;;;;5021578;28;20099;-65
2023/07/10 18:06:23;;;;;;;4.53;2.58;;;;;;;;;;5020809;28;20460;-65
2023/07/10 18:08:49;;;;;;;5.03;3.42;;;;;;;;;;5022246;28;20048;-64
2023/07/10 18:11:22;;;;;;;7.47;3.20;;;;;;;;;;5022666;28;20049;-64
2023/07/10 18:13:48;;;;;;;3.78;2.55;;;;;;;;;;5021831;28;20113;-64
2023/07/10 18:16:15;;;;;;;5.15;2.80;;;;;;;;;;5022490;28;20257;-65
2023/07/10 18:18:41;;;;;;;8.65;3.53;;;;;;;;;;5023219;28;20356;-64
2023/07/10 18:21:23;;;;;;;3.60;2.80;;;;;;;;;;5021092;28;20046;-65
2023/07/10 18:23:50;;;;;;;7.40;3.67;;;;;;;;;;5018799;28;20041;-65
2023/07/10 18:26:18;;;;;;;4.05;3.25;;;;;;;;;;4987349;28;20121;-64
2023/07/10 18:28:44;;;;;;;5.32;3.03;;;;;;;;;;5010067;28;20045;-64
2023/07/10 18:31:22;;;;;;;6.22;2.97;;;;;;;;;;5006894;28;20056;-64
2023/07/10 18:33:55;;;;;;;5.20;3.27;;;;;;;;;;5008856;28;20046;-64
2023/07/10 18:36:22;;;;;;;6.07;3.25;;;;;;;;;;5009587;28;20048;-64
2023/07/10 18:38:47;;;;;;;5.13;2.97;;;;;;;;;;5024556;28;20056;-66
2023/07/10 18:41:26;;;;;;;6.75;2.70;;;;;;;;;;5009310;28;20034;-65
2023/07/10 18:43:53;;;;;;;;;;;;;;;;;;5001289;28;20045;-64
2023/07/10 18:46:23;;;;;;;4.93;2.67;;;;;;;;;;5005295;28;19925;-64
2023/07/10 18:48:49;;;;;;;15.85;3.17;;;;;;;;;;4999256;28;20038;-64
2023/07/10 18:51:31;;;;;;;5.85;2.60;;;;;;;;;;5003328;28;20455;-64
2023/07/10 18:54:01;;;;;;;4.32;3.00;;;;;;;;;;5006521;28;20501;-65
2023/07/10 18:56:26;;;;;;;7.57;2.75;;;;;;;;;;5006117;28;20444;-64
2023/07/10 18:58:52;;;;;;;3.67;2.30;;;;;;;;;;5008158;28;20037;-64
2023/07/10 19:01:19;;;;;;;5.55;3.55;;;;;;;;;;5008629;28;20215;-64
2023/07/10 19:03:45;;;;;;;5.18;2.78;;;;;;;;;;4920559;28;20129;-64
2023/07/10 19:06:30;;;;;;;4.28;2.40;;;;;;;;;;4990795;28;20042;-65
2023/07/10 19:08:55;;;;;;;7.20;3.75;;;;;;;;;;5007637;28;20080;-65
2023/07/10 19:11:21;;;;;;;5.15;3.03;;;;;;;;;;5007072;28;20214;-64
2023/07/10 19:13:47;;;;;;;4.75;2.92;;;;;;;;;;5003113;28;20042;-64
2023/07/10 19:16:27;;;;;;;6.95;3.28;;;;;;;;;;5006944;28;20121;-64
2023/07/10 19:18:59;;;;;;;7.55;3.13;;;;;;;;;;5004577;28;20125;-65
2023/07/10 19:21:26;;;;;;;9.70;4.90;;;;;;;;;;4988226;28;20042;-65
2023/07/10 19:23:52;;;;;;;12.02;3.58;;;;;;;;;;4989331;28;20568;-65
2023/07/10 19:26:20;;;;;;;10.63;3.80;;;;;;;;;;4988315;28;20129;-64
2023/07/10 19:28:46;;;;;;;10.50;3.55;;;;;;;;;;4987961;28;20077;-64
2023/07/10 19:31:15;;;;;;;7.18;4.22;;;;;;;;;;4987436;28;20491;-64
2023/07/10 19:33:46;;;;;;;11.55;4.22;;;;;;;;;;4971612;28;20057;-64
2023/07/10 19:36:16;;;;;;;10.60;4.35;;;;;;;;;;4986862;28;20060;-64
2023/07/10 19:38:42;;;;;;;9.07;4.45;;;;;;;;;;4988166;28;20057;-64
2023/07/10 19:41:09;;;;;;;8.68;3.20;;;;;;;;;;4989709;28;20039;-66
2023/07/10 19:43:35;;;;;;;7.38;3.50;;;;;;;;;;5006706;28;20037;-64
2023/07/10 19:46:01;;;;;;;7.43;3.33;;;;;;;;;;5008123;28;20496;-64
2023/07/10 19:48:32;;;;;;;12.18;4.20;;;;;;;;;;5007366;28;20407;-64
2023/07/10 19:50:58;;;;;;;6.38;3.85;;;;;;;;;;5008505;28;20050;-64
2023/07/10 19:53:30;;;;;;;6.00;3.30;;;;;;;;;;5007871;28;20471;-64
2023/07/10 19:56:01;;;;;;;7.75;4.03;;;;;;;;;;5007206;28;20057;-64
2023/07/10 19:58:30;;;;;;;7.13;3.90;;;;;;;;;;5006618;28;20045;-64
2023/07/10 20:00:59;;;;;;;5.47;3.38;;;;;;;;;;5006859;28;20080;-64